Wednesday, June 20, 2018, 5:14 PM EDT
Back to Local

KAFN, Jaffrey Muni-silver Ranch

Location: Jaffrey, NH, United States Lat: 42.8
Local Time: 5:14 PM EDT (21:14 GMT) Lon: -72
Time Zone: US/Eastern Elev: 1040 ft

Show me the last for .
Show Decoded

2018-06-20 16:52 METAR KAFN 202052Z AUTO 27008KT 230V290 10SM CLR 24/12 A2983 RMK AO2 SLP103
                 T02440117 58006 =
2018-06-20 15:52 METAR KAFN 201952Z AUTO 25006KT 10SM CLR 24/11 A2984 RMK AO2 SLP106 T02440111 =
2018-06-20 14:52 METAR KAFN 201852Z AUTO VRB06KT 10SM CLR 24/11 A2985 RMK AO2 SLP111 T02390111 =
2018-06-20 13:52 METAR KAFN 201752Z AUTO 29007G15KT 10SM CLR 24/09 A2985 RMK AO2 SLP108 T02440089
                 10250 20167 56017 =
2018-06-20 12:52 METAR KAFN 201652Z AUTO 26009KT 10SM CLR 24/08 A2986 RMK AO2 SLP112 T02440078 =
2018-06-20 11:52 METAR KAFN 201552Z AUTO 24007KT 180V300 10SM CLR 23/09 A2989 RMK AO2 SLP122
                 T02330089 =
2018-06-20 10:52 METAR KAFN 201452Z AUTO 23009KT 10SM CLR 23/11 A2990 RMK AO2 SLP126 T02280106
                 57014 =
2018-06-20 09:52 METAR KAFN 201352Z AUTO VRB05KT 10SM CLR 22/11 A2991 RMK AO2 SLP130 T02170106 =
2018-06-20 08:52 METAR KAFN 201252Z AUTO 20003KT 10SM CLR 21/11 A2993 RMK AO2 SLP136 T02060106 =
2018-06-20 07:52 METAR KAFN 201152Z AUTO 00000KT 10SM CLR 16/13 A2994 RMK AO2 SLP140 T01610128
                 10167 20089 51008 =
2018-06-20 06:52 METAR KAFN 201052Z AUTO 00000KT 10SM CLR 12/11 A2994 RMK AO2 SLP141 T01220111 =
2018-06-20 05:52 METAR KAFN 200952Z AUTO 00000KT 10SM CLR 09/09 A2992 RMK AO2 SLP135 T00940089 =
2018-06-20 04:52 METAR KAFN 200852Z AUTO 00000KT 10SM CLR 09/09 A2992 RMK AO2 SLP134 T00940089
                 55000 =
2018-06-20 03:52 METAR KAFN 200752Z AUTO 00000KT 10SM CLR 09/09 A2991 RMK AO2 SLP130 T00940089 =
2018-06-20 02:52 METAR KAFN 200652Z AUTO 00000KT 10SM CLR 10/09 A2992 RMK AO2 SLP133 T01000094 =
2018-06-20 01:52 METAR KAFN 200552Z AUTO 00000KT 10SM CLR 11/10 A2992 RMK AO2 SLP133 T01060100
                 10222 20106 58004 =
2018-06-20 00:52 METAR KAFN 200452Z AUTO 00000KT 10SM CLR 12/11 A2992 RMK AO2 SLP133 T01170106
                 402560111 =
2018-06-19 23:52 METAR KAFN 200352Z AUTO 00000KT 10SM CLR 12/11 A2994 RMK AO2 SLP140 T01220106 =
2018-06-19 22:52 METAR KAFN 200252Z AUTO 00000KT 10SM CLR 14/11 A2993 RMK AO2 SLP137 T01390111
                 53019 =
2018-06-19 21:52 METAR KAFN 200152Z AUTO 00000KT 10SM CLR 17/09 A2991 RMK AO2 SLP130 T01670094 =
2018-06-19 20:52 METAR KAFN 200052Z AUTO 00000KT 10SM CLR 17/12 A2989 RMK AO2 SLP122 T01720117 =
2018-06-19 19:52 METAR KAFN 192352Z AUTO VRB03KT 10SM CLR 22/08 A2987 RMK AO2 SLP115 T02220078
                 10256 20222 53013 =
2018-06-19 18:52 METAR KAFN 192252Z AUTO VRB04KT 10SM CLR 24/09 A2985 RMK AO2 SLP108 T02440089 =
2018-06-19 17:52 METAR KAFN 192152Z AUTO 01007KT 10SM CLR 24/07 A2984 RMK AO2 SLP103 T02440072 =

Support USWX by starting your Amazon purchase here.